Time;durP1;ratioP1;P1;durP2;ratioP2;P2;SDS_P1;SDS_P2;PMS_P1;PMS_P2;Temp;Humidity;BMP_temperature;BMP_pressure;BME280_temperature;BME280_humidity;BME280_pressure;Samples;Min_cycle;Max_cycle;Signal;HPM_P1;HPM_P2
2021/07/31 00:01:49;;;;;;;11.67;7.30;;;20.20;1.00;;;;;;5078116;28;20427;-77
2021/07/31 00:04:16;;;;;;;7.93;6.60;;;20.20;1.00;;;;;;5068512;28;20423;-78
2021/07/31 00:06:42;;;;;;;9.40;7.20;;;20.20;1.00;;;;;;5065882;28;20479;-77
2021/07/31 00:09:09;;;;;;;9.83;8.83;;;20.10;1.00;;;;;;5055944;28;20455;-76
2021/07/31 00:11:35;;;;;;;8.67;7.37;;;20.10;1.00;;;;;;5069258;28;20498;-77
2021/07/31 00:14:04;;;;;;;8.87;6.87;;;20.00;1.00;;;;;;5066997;28;20440;-77
2021/07/31 00:16:30;;;;;;;8.10;6.80;;;20.00;1.00;;;;;;5084192;27;21108;-75
2021/07/31 00:18:57;;;;;;;8.10;7.23;;;20.00;1.00;;;;;;5064849;28;20496;-76
2021/07/31 00:21:24;;;;;;;9.50;8.13;;;20.00;1.00;;;;;;5066056;28;20489;-76
2021/07/31 00:23:51;;;;;;;9.73;6.90;;;20.00;1.00;;;;;;5064719;28;20481;-76
2021/07/31 00:26:18;;;;;;;8.17;6.23;;;20.00;1.00;;;;;;5066530;28;21105;-76
2021/07/31 00:28:45;;;;;;;7.60;6.60;;;20.00;1.00;;;;;;5071400;28;21564;-76
2021/07/31 00:31:13;;;;;;;9.10;6.50;;;20.00;1.00;;;;;;5067250;28;20516;-76
2021/07/31 00:33:40;;;;;;;8.57;6.93;;;20.00;1.00;;;;;;5065574;28;20461;-75
2021/07/31 00:36:06;;;;;;;7.37;6.57;;;20.00;1.00;;;;;;5064550;28;20444;-75
2021/07/31 00:38:33;;;;;;;7.20;6.50;;;19.90;1.00;;;;;;5067815;28;20474;-78
2021/07/31 00:40:59;;;;;;;8.20;6.50;;;19.90;1.00;;;;;;5065614;28;20491;-76
2021/07/31 00:43:26;;;;;;;10.07;6.90;;;19.80;1.00;;;;;;5067494;28;20432;-77
2021/07/31 00:45:53;;;;;;;6.20;5.60;;;19.70;1.00;;;;;;5067444;28;20455;-76
2021/07/31 00:48:22;;;;;;;6.43;5.80;;;19.60;1.00;;;;;;5064501;28;20455;-76
2021/07/31 00:50:48;;;;;;;8.47;6.90;;;19.60;1.00;;;;;;5066338;28;20958;-77
2021/07/31 00:53:16;;;;;;;13.30;12.10;;;19.50;1.00;;;;;;5065721;28;20517;-76
2021/07/31 00:55:43;;;;;;;8.07;6.50;;;19.40;1.00;;;;;;5065142;28;20458;-77
2021/07/31 00:58:10;;;;;;;8.33;7.47;;;19.40;1.00;;;;;;5069342;28;20463;-76
2021/07/31 01:00:37;;;;;;;7.33;6.57;;;19.30;1.00;;;;;;5068958;28;20459;-76
2021/07/31 01:03:04;;;;;;;6.63;5.93;;;19.30;1.00;;;;;;5066192;28;20526;-76
2021/07/31 01:05:32;;;;;;;7.33;5.93;;;19.30;1.00;;;;;;5067651;28;20522;-77
2021/07/31 01:07:58;;;;;;;7.03;6.13;;;19.30;1.00;;;;;;5065617;28;20466;-77
2021/07/31 01:10:25;;;;;;;7.37;5.50;;;19.30;1.00;;;;;;5059402;28;20447;-77
2021/07/31 01:12:52;;;;;;;6.70;5.53;;;19.30;1.00;;;;;;5063428;28;20442;-76
2021/07/31 01:15:19;;;;;;;6.00;5.43;;;19.30;1.00;;;;;;5065844;28;21785;-77
2021/07/31 01:17:46;;;;;;;9.33;5.57;;;19.30;1.00;;;;;;5065446;28;20591;-75
2021/07/31 01:20:13;;;;;;;6.77;6.17;;;19.40;1.00;;;;;;5063880;28;20498;-75
2021/07/31 01:22:41;;;;;;;6.97;6.27;;;19.40;1.00;;;;;;5068817;28;20791;-77
2021/07/31 01:25:09;;;;;;;6.60;5.33;;;19.40;1.00;;;;;;5066815;28;20438;-77
2021/07/31 01:27:36;;;;;;;8.33;5.70;;;19.40;1.00;;;;;;5068750;28;20443;-78
2021/07/31 01:30:04;;;;;;;7.00;5.80;;;19.30;1.00;;;;;;5070505;28;20447;-77
2021/07/31 01:32:31;;;;;;;6.10;5.50;;;19.40;1.00;;;;;;5073647;28;20443;-77
2021/07/31 01:34:57;;;;;;;6.30;5.60;;;19.40;1.00;;;;;;5072039;28;20454;-76
2021/07/31 01:37:24;;;;;;;7.67;6.17;;;19.50;1.00;;;;;;5073142;28;20452;-77
2021/07/31 01:39:52;;;;;;;7.50;5.43;;;19.50;1.00;;;;;;5074526;28;20467;-77
2021/07/31 01:42:19;;;;;;;6.60;5.93;;;19.60;1.00;;;;;;5069187;28;20447;-77
2021/07/31 01:44:46;;;;;;;6.17;5.57;;;19.60;1.00;;;;;;5073838;28;20983;-77
2021/07/31 01:47:12;;;;;;;6.57;5.87;;;19.60;1.00;;;;;;5068570;28;20942;-77
2021/07/31 01:49:39;;;;;;;6.30;5.70;;;19.60;1.00;;;;;;5073656;28;20495;-77
2021/07/31 01:52:06;;;;;;;7.30;6.20;;;19.70;1.00;;;;;;5074067;28;21029;-77
2021/07/31 01:54:33;;;;;;;6.67;5.80;;;19.70;1.00;;;;;;5070378;28;20431;-76
2021/07/31 01:57:01;;;;;;;7.90;5.83;;;19.70;1.00;;;;;;5073641;28;20828;-77
2021/07/31 01:59:27;;;;;;;6.40;5.80;;;19.70;1.00;;;;;;5072220;28;20478;-77
2021/07/31 02:01:54;;;;;;;7.00;6.37;;;19.70;1.00;;;;;;5073709;28;20449;-77
2021/07/31 02:04:21;;;;;;;6.13;5.13;;;19.70;1.00;;;;;;5073137;28;20489;-77
2021/07/31 02:06:47;;;;;;;8.07;6.13;;;19.70;1.00;;;;;;5070744;28;20488;-77
2021/07/31 02:09:14;;;;;;;6.73;5.97;;;19.70;1.00;;;;;;5072451;28;20447;-77
2021/07/31 02:11:40;;;;;;;6.93;5.80;;;19.70;1.00;;;;;;5072845;28;20412;-77
2021/07/31 02:14:08;;;;;;;7.90;5.80;;;19.70;1.00;;;;;;5071968;28;20432;-77
2021/07/31 02:16:35;;;;;;;6.90;6.30;;;19.70;1.00;;;;;;5074128;28;20473;-77
2021/07/31 02:19:02;;;;;;;6.60;6.00;;;19.70;1.00;;;;;;5069854;28;20466;-78
2021/07/31 02:21:28;;;;;;;6.30;5.70;;;19.70;1.00;;;;;;5070574;28;20440;-75
2021/07/31 02:23:55;;;;;;;6.33;5.37;;;19.60;1.00;;;;;;5071110;28;20438;-74
2021/07/31 02:26:21;;;;;;;6.10;5.37;;;19.60;1.00;;;;;;5071875;28;21077;-75
2021/07/31 02:28:48;;;;;;;6.13;5.63;;;19.60;1.00;;;;;;5075109;28;21690;-75
2021/07/31 02:31:16;;;;;;;7.53;5.20;;;19.60;1.00;;;;;;5066995;28;20441;-77
2021/07/31 02:33:43;;;;;;;6.97;5.77;;;19.80;1.00;;;;;;5070940;28;20488;-77
2021/07/31 02:36:09;;;;;;;6.33;5.10;;;19.80;1.00;;;;;;5070963;28;20455;-76
2021/07/31 02:38:37;;;;;;;5.80;5.23;;;19.90;1.00;;;;;;5071165;28;20507;-76
2021/07/31 02:41:04;;;;;;;6.53;5.27;;;20.00;1.00;;;;;;5074099;28;20851;-76
2021/07/31 02:43:31;;;;;;;6.67;5.70;;;20.00;1.00;;;;;;5074043;28;20451;-76
2021/07/31 02:46:04;;;;;;;6.13;5.40;;;20.10;1.00;;;;;;5073613;28;20592;-76
2021/07/31 02:48:32;;;;;;;6.57;5.50;;;20.20;1.00;;;;;;5074398;28;20945;-76
2021/07/31 02:51:02;;;;;;;7.10;5.50;;;20.20;1.00;;;;;;5082199;28;20441;-76
2021/07/31 02:53:28;;;;;;;6.33;5.50;;;20.20;1.00;;;;;;5079668;28;20498;-76
2021/07/31 02:55:55;;;;;;;5.60;4.60;;;20.40;1.00;;;;;;5079390;28;20447;-77
2021/07/31 02:58:22;;;;;;;4.53;4.13;;;20.40;1.00;;;;;;5079066;28;20544;-77
2021/07/31 03:00:48;;;;;;;5.13;4.63;;;20.50;1.00;;;;;;5072346;28;20602;-76
2021/07/31 03:03:15;;;;;;;5.30;4.17;;;20.50;1.00;;;;;;5069095;28;20440;-76
2021/07/31 03:05:43;;;;;;;4.77;4.27;;;20.60;1.00;;;;;;5070369;28;20449;-76
2021/07/31 03:08:10;;;;;;;4.10;3.70;;;20.60;1.00;;;;;;5072313;28;21221;-76
2021/07/31 03:10:36;;;;;;;4.17;3.77;;;20.60;1.00;;;;;;5071560;28;20976;-76
2021/07/31 03:13:03;;;;;;;6.07;4.20;;;20.70;1.00;;;;;;5072413;28;20471;-76
2021/07/31 03:15:29;;;;;;;4.17;3.47;;;20.70;1.00;;;;;;5071590;28;20443;-76
2021/07/31 03:17:57;;;;;;;3.70;3.40;;;20.70;1.00;;;;;;5069133;28;20476;-76
2021/07/31 03:20:23;;;;;;;5.67;4.17;;;20.70;1.00;;;;;;5067023;28;20456;-76
2021/07/31 03:22:51;;;;;;;4.70;3.87;;;20.70;1.00;;;;;;5071786;28;20452;-76
2021/07/31 03:25:18;;;;;;;5.10;3.60;;;20.70;1.00;;;;;;5068876;28;20451;-76
2021/07/31 03:27:45;;;;;;;4.33;3.50;;;20.70;1.00;;;;;;5071547;28;20988;-76
2021/07/31 03:30:12;;;;;;;4.73;3.87;;;20.60;1.00;;;;;;5071623;28;20454;-76
2021/07/31 03:32:39;;;;;;;4.60;3.53;;;20.60;1.00;;;;;;5072381;28;20468;-76
2021/07/31 03:35:06;;;;;;;4.93;3.30;;;20.60;1.00;;;;;;5072530;28;20457;-76
2021/07/31 03:37:32;;;;;;;4.10;3.70;;;20.60;1.00;;;;;;5073621;28;20465;-76
2021/07/31 03:40:02;;;;;;;4.60;3.53;;;20.60;1.00;;;;;;5071545;28;20501;-76
2021/07/31 03:42:28;;;;;;;5.10;3.90;;;20.60;1.00;;;;;;5072114;28;22102;-76
2021/07/31 03:44:55;;;;;;;4.60;3.53;;;20.50;1.00;;;;;;5069158;28;20507;-76
2021/07/31 03:47:22;;;;;;;5.60;3.23;;;20.50;1.00;;;;;;5075712;28;20456;-77
2021/07/31 03:49:48;;;;;;;4.57;3.10;;;20.50;1.00;;;;;;5074356;28;21171;-77
2021/07/31 03:52:15;;;;;;;3.77;3.47;;;20.40;1.00;;;;;;5071768;28;20460;-77
2021/07/31 03:54:41;;;;;;;5.10;3.03;;;20.40;1.00;;;;;;5069744;28;20468;-77
2021/07/31 03:57:09;;;;;;;3.57;3.20;;;20.30;1.00;;;;;;5076173;28;21241;-77
2021/07/31 03:59:36;;;;;;;3.27;3.00;;;20.30;1.00;;;;;;5072842;28;20447;-77
2021/07/31 04:02:03;;;;;;;4.03;3.27;;;20.20;1.00;;;;;;5070177;28;20443;-77
2021/07/31 04:04:30;;;;;;;3.77;3.37;;;20.20;1.00;;;;;;5071833;28;20477;-77
2021/07/31 04:06:58;;;;;;;3.40;3.10;;;20.10;1.00;;;;;;5072178;28;20447;-77
2021/07/31 04:09:25;;;;;;;3.00;2.70;;;20.10;1.00;;;;;;5072643;28;20513;-77
2021/07/31 04:11:52;;;;;;;3.33;3.03;;;20.00;1.00;;;;;;5071875;28;20501;-77
2021/07/31 04:14:20;;;;;;;3.40;3.10;;;20.00;1.00;;;;;;5068602;28;20455;-77
2021/07/31 04:16:47;;;;;;;3.73;3.33;;;19.90;1.00;;;;;;5068189;28;20439;-77
2021/07/31 04:19:14;;;;;;;3.30;3.00;;;19.90;1.00;;;;;;5068888;28;20484;-77
2021/07/31 04:21:41;;;;;;;3.70;2.80;;;19.90;1.00;;;;;;5072250;28;21874;-77
2021/07/31 04:24:08;;;;;;;3.70;3.13;;;19.90;1.00;;;;;;5071968;28;20447;-77
2021/07/31 04:26:34;;;;;;;3.63;2.83;;;19.90;1.00;;;;;;5071892;28;20457;-77
2021/07/31 04:29:03;;;;;;;5.33;3.30;;;19.90;1.00;;;;;;5072025;28;20466;-77
2021/07/31 04:31:31;;;;;;;3.30;3.00;;;19.90;1.00;;;;;;5071040;28;21440;-77
2021/07/31 04:33:58;;;;;;;4.07;2.50;;;19.80;1.00;;;;;;5073803;28;20471;-77
2021/07/31 04:36:24;;;;;;;3.50;2.93;;;19.80;1.00;;;;;;5072770;28;20451;-77
2021/07/31 04:38:51;;;;;;;3.50;3.20;;;19.80;1.00;;;;;;5074353;28;21261;-77
2021/07/31 04:41:17;;;;;;;3.80;2.83;;;19.80;1.00;;;;;;5075095;28;20444;-77
2021/07/31 04:43:44;;;;;;;4.70;2.80;;;19.80;1.00;;;;;;5084341;28;21408;-77
2021/07/31 04:46:11;;;;;;;4.67;3.07;;;19.70;1.00;;;;;;5073135;28;20454;-77
2021/07/31 04:48:39;;;;;;;4.73;3.33;;;19.70;1.00;;;;;;5071817;28;20846;-77
2021/07/31 04:51:08;;;;;;;5.33;2.93;;;19.70;1.00;;;;;;5069398;28;20534;-77
2021/07/31 04:53:35;;;;;;;2.60;2.40;;;19.70;1.00;;;;;;5071928;28;20955;-77
2021/07/31 04:56:03;;;;;;;3.40;2.60;;;19.70;1.00;;;;;;5069260;28;20471;-77
2021/07/31 04:58:29;;;;;;;4.77;2.60;;;19.60;1.00;;;;;;5072195;28;20462;-77
2021/07/31 05:00:59;;;;;;;5.00;2.87;;;19.70;1.00;;;;;;5070784;28;20470;-77
2021/07/31 05:03:25;;;;;;;4.00;2.63;;;19.70;1.00;;;;;;5069442;28;20497;-77
2021/07/31 05:05:53;;;;;;;2.90;2.60;;;19.80;1.00;;;;;;5066763;28;20971;-77
2021/07/31 05:08:20;;;;;;;2.70;2.50;;;19.80;1.00;;;;;;5068676;28;20462;-77
2021/07/31 05:10:49;;;;;;;3.60;2.70;;;19.80;1.00;;;;;;5066034;28;20451;-77
2021/07/31 05:13:16;;;;;;;3.43;2.20;;;19.80;1.00;;;;;;5063589;28;20467;-77
2021/07/31 05:15:44;;;;;;;3.10;2.23;;;19.80;1.00;;;;;;5069625;28;20522;-77
2021/07/31 05:18:12;;;;;;;3.70;2.30;;;19.80;1.00;;;;;;5067455;28;20431;-77
2021/07/31 05:20:40;;;;;;;3.83;2.10;;;19.80;1.00;;;;;;5069890;28;20436;-77
2021/07/31 05:23:08;;;;;;;3.60;2.00;;;19.80;1.00;;;;;;5068051;28;20613;-75
2021/07/31 05:25:35;;;;;;;3.20;2.10;;;19.90;1.00;;;;;;5065488;28;20772;-76
2021/07/31 05:28:01;;;;;;;2.50;1.80;;;20.10;1.00;;;;;;5073966;28;21475;-76
2021/07/31 05:30:28;;;;;;;3.70;2.10;;;20.30;1.00;;;;;;5071657;28;20442;-76
2021/07/31 05:32:55;;;;;;;2.67;2.00;;;20.30;1.00;;;;;;5068698;28;20456;-76
2021/07/31 05:35:22;;;;;;;2.73;2.00;;;20.30;1.00;;;;;;5069482;28;20457;-76
2021/07/31 05:37:49;;;;;;;3.63;1.97;;;20.30;1.00;;;;;;5070827;28;20435;-76
2021/07/31 05:40:18;;;;;;;3.60;1.97;;;20.30;1.00;;;;;;5072334;28;21276;-76
2021/07/31 05:42:45;;;;;;;2.67;1.93;;;20.30;1.00;;;;;;5071454;28;20530;-76
2021/07/31 05:45:11;;;;;;;2.83;2.10;;;20.30;1.00;;;;;;5073173;28;20476;-77
2021/07/31 05:47:38;;;;;;;3.70;2.10;;;20.40;1.00;;;;;;5084931;28;20793;-76
2021/07/31 05:50:06;;;;;;;2.93;2.07;;;20.40;1.00;;;;;;5071857;28;20517;-76
2021/07/31 05:52:34;;;;;;;2.20;1.93;;;20.40;1.00;;;;;;5065530;28;20439;-76
2021/07/31 05:55:02;;;;;;;2.27;1.70;;;20.40;1.00;;;;;;5065539;28;20486;-76
2021/07/31 05:57:29;;;;;;;3.27;2.07;;;20.50;1.00;;;;;;5070397;28;21032;-76
2021/07/31 06:00:01;;;;;;;3.17;2.00;;;20.50;1.00;;;;;;5072754;28;20464;-80
2021/07/31 06:02:30;;;;;;;3.90;1.70;;;20.40;1.00;;;;;;5077795;27;20551;-80
2021/07/31 06:04:57;;;;;;;5.50;2.27;;;20.50;1.00;;;;;;5075146;28;20463;-75
2021/07/31 06:07:23;;;;;;;3.90;1.97;;;20.60;1.00;;;;;;5073523;28;20458;-77
2021/07/31 06:09:53;;;;;;;2.30;1.60;;;20.60;1.00;;;;;;5069563;28;21143;-76
2021/07/31 06:12:20;;;;;;;2.33;1.70;;;20.60;1.00;;;;;;5070142;28;21335;-77
2021/07/31 06:14:49;;;;;;;5.90;1.73;;;20.60;1.00;;;;;;5072482;28;20460;-76
2021/07/31 06:17:16;;;;;;;3.17;1.87;;;20.70;1.00;;;;;;5075288;28;20423;-76
2021/07/31 06:19:43;;;;;;;2.87;2.30;;;20.80;1.00;;;;;;5072677;28;20456;-77
2021/07/31 06:22:11;;;;;;;3.20;1.90;;;20.80;1.00;;;;;;5071431;27;20449;-75
2021/07/31 06:24:40;;;;;;;3.20;1.80;;;20.90;1.00;;;;;;5075912;27;20488;-76
2021/07/31 06:27:07;;;;;;;2.20;1.40;;;20.90;1.00;;;;;;5069774;28;20432;-77
2021/07/31 06:29:34;;;;;;;4.33;1.87;;;20.90;1.00;;;;;;5068746;28;20441;-76
2021/07/31 06:32:03;;;;;;;2.53;1.90;;;20.90;1.00;;;;;;5073442;28;20492;-76
2021/07/31 06:34:30;;;;;;;7.93;2.40;;;20.90;1.00;;;;;;5068537;28;20483;-76
2021/07/31 06:36:56;;;;;;;2.53;1.40;;;20.90;1.00;;;;;;5067603;28;20669;-77
2021/07/31 06:39:25;;;;;;;4.43;2.00;;;20.90;1.00;;;;;;5074260;28;21555;-76
2021/07/31 06:41:52;;;;;;;4.13;2.00;;;20.90;1.00;;;;;;5067497;28;20550;-76
2021/07/31 06:44:19;;;;;;;3.60;1.50;;;20.90;1.00;;;;;;5068644;28;20558;-76
2021/07/31 06:46:45;;;;;;;2.10;1.50;;;21.00;1.00;;;;;;5069489;28;20486;-76
2021/07/31 06:49:13;;;;;;;2.90;1.80;;;21.10;1.00;;;;;;5066897;28;20471;-76
2021/07/31 06:51:40;;;;;;;3.83;1.60;;;21.20;1.00;;;;;;5069505;28;20449;-76
2021/07/31 06:54:06;;;;;;;2.43;1.50;;;21.20;1.00;;;;;;5066750;28;20477;-76
2021/07/31 06:56:34;;;;;;;2.43;1.67;;;21.20;1.00;;;;;;5066405;28;20428;-76
2021/07/31 06:59:01;;;;;;;2.73;1.47;;;21.30;1.00;;;;;;5065772;28;21293;-78
2021/07/31 07:01:28;;;;;;;2.60;1.50;;;21.30;1.00;;;;;;5067376;28;20651;-76
2021/07/31 07:03:55;;;;;;;2.57;1.60;;;21.50;1.00;;;;;;5069205;28;20573;-76
2021/07/31 07:06:23;;;;;;;2.47;1.60;;;21.50;1.00;;;;;;5068131;28;21748;-76
2021/07/31 07:08:49;;;;;;;3.40;1.57;;;21.50;1.00;;;;;;5072286;28;20455;-77
2021/07/31 07:11:17;;;;;;;2.87;1.20;;;21.50;1.00;;;;;;5069725;28;20465;-78
2021/07/31 07:13:44;;;;;;;1.87;1.10;;;21.50;1.00;;;;;;5074049;28;20469;-78
2021/07/31 07:16:11;;;;;;;2.23;1.37;;;21.50;1.00;;;;;;5074562;28;21231;-78
2021/07/31 07:18:37;;;;;;;3.23;1.70;;;21.50;1.00;;;;;;5072926;28;20488;-77
2021/07/31 07:21:06;;;;;;;4.17;2.53;;;21.60;1.00;;;;;;5073321;28;20443;-77
2021/07/31 07:23:34;;;;;;;5.30;1.80;;;21.70;1.00;;;;;;5070040;28;20541;-77
2021/07/31 07:26:00;;;;;;;3.73;1.67;;;21.70;1.00;;;;;;5073046;28;20434;-77
2021/07/31 07:28:27;;;;;;;2.20;1.50;;;21.70;1.00;;;;;;5069346;28;20460;-78
2021/07/31 07:30:54;;;;;;;3.20;1.60;;;21.70;1.00;;;;;;5071004;28;20456;-78
2021/07/31 07:33:20;;;;;;;4.07;1.50;;;21.70;1.00;;;;;;5071748;28;20956;-77
2021/07/31 07:35:47;;;;;;;3.00;1.83;;;21.70;1.00;;;;;;5070295;28;20482;-77
2021/07/31 07:38:14;;;;;;;3.10;2.00;;;21.80;1.00;;;;;;5072960;28;20448;-77
2021/07/31 07:40:42;;;;;;;3.17;1.50;;;21.90;1.00;;;;;;5074826;28;20519;-77
2021/07/31 07:43:08;;;;;;;3.03;1.73;;;22.10;1.00;;;;;;5071614;28;20465;-78
2021/07/31 07:45:35;;;;;;;3.37;1.53;;;22.30;1.00;;;;;;5074815;28;21373;-78
2021/07/31 07:48:02;;;;;;;2.67;1.50;;;22.50;1.00;;;;;;5072831;28;21011;-78
2021/07/31 07:50:28;;;;;;;2.30;1.83;;;22.60;1.00;;;;;;5070424;28;21102;-77
2021/07/31 07:52:55;;;;;;;3.37;1.50;;;22.50;1.00;;;;;;5071458;28;20450;-76
2021/07/31 07:55:22;;;;;;;4.57;1.50;;;22.50;1.00;;;;;;5071788;28;20556;-76
2021/07/31 07:57:50;;;;;;;1.80;1.40;;;22.50;1.00;;;;;;5074711;28;20449;-77
2021/07/31 08:00:17;;;;;;;6.33;2.40;;;22.40;1.00;;;;;;5073581;28;20545;-77
2021/07/31 08:02:43;;;;;;;2.33;1.47;;;22.40;1.00;;;;;;5075343;28;20849;-76
2021/07/31 08:05:13;;;;;;;3.17;1.90;;;22.40;1.00;;;;;;5074667;28;20486;-76
2021/07/31 08:07:41;;;;;;;2.37;1.40;;;22.40;1.00;;;;;;5068117;28;20539;-76
2021/07/31 08:10:10;;;;;;;5.30;1.57;;;22.50;1.00;;;;;;5074530;28;20456;-76
2021/07/31 08:12:37;;;;;;;3.27;1.70;;;22.70;1.00;;;;;;5074465;28;20469;-76
2021/07/31 08:15:06;;;;;;;3.67;1.60;;;22.80;1.00;;;;;;5074940;28;20433;-78
2021/07/31 08:17:33;;;;;;;3.67;1.83;;;22.80;1.00;;;;;;5075205;28;20525;-78
2021/07/31 08:19:59;;;;;;;2.83;1.10;;;22.80;1.00;;;;;;5071525;28;20485;-78
2021/07/31 08:22:26;;;;;;;3.07;1.40;;;23.00;1.00;;;;;;5074346;28;20454;-78
2021/07/31 08:24:53;;;;;;;4.20;1.50;;;23.30;1.00;;;;;;5076273;28;20496;-78
2021/07/31 08:27:20;;;;;;;2.63;1.40;;;23.50;1.00;;;;;;5070784;28;20448;-76
2021/07/31 08:29:46;;;;;;;2.50;1.47;;;23.40;1.00;;;;;;5074920;28;20549;-78
2021/07/31 08:32:14;;;;;;;4.23;1.50;;;23.30;1.00;;;;;;5072523;28;20563;-78
2021/07/31 08:34:41;;;;;;;3.83;1.50;;;23.50;1.00;;;;;;5069326;28;20455;-78
2021/07/31 08:37:08;;;;;;;2.23;1.33;;;23.40;1.00;;;;;;5077010;28;20457;-78
2021/07/31 08:39:37;;;;;;;4.63;1.40;;;23.40;1.00;;;;;;5072464;28;20825;-78
2021/07/31 08:42:05;;;;;;;3.10;1.53;;;23.70;1.00;;;;;;5074258;28;20467;-77
2021/07/31 08:44:33;;;;;;;4.23;1.10;;;23.80;1.00;;;;;;5072442;28;20444;-78
2021/07/31 08:47:03;;;;;;;3.77;1.40;;;23.80;1.00;;;;;;5071680;28;20454;-78
2021/07/31 08:49:32;;;;;;;1.87;1.20;;;23.80;1.00;;;;;;5071359;28;20456;-79
2021/07/31 08:52:01;;;;;;;3.83;1.77;;;23.90;1.00;;;;;;5085646;28;20468;-80
2021/07/31 08:54:28;;;;;;;1.83;1.40;;;24.00;1.00;;;;;;5086713;28;20454;-82
2021/07/31 08:56:55;;;;;;;6.83;1.47;;;24.00;1.00;;;;;;5087738;28;20435;-80
2021/07/31 08:59:25;;;;;;;4.73;1.40;;;24.10;1.00;;;;;;5085923;28;20530;-80
2021/07/31 09:01:52;;;;;;;2.23;1.40;;;24.20;1.00;;;;;;5085493;28;20463;-82
2021/07/31 09:04:19;;;;;;;2.50;1.70;;;24.30;1.00;;;;;;5083061;28;20459;-80
2021/07/31 09:06:47;;;;;;;2.43;1.20;;;24.30;1.00;;;;;;5094023;28;20417;-80
2021/07/31 09:09:14;;;;;;;1.63;1.40;;;24.40;1.00;;;;;;5076996;28;20437;-78
2021/07/31 09:11:58;;;;;;;5.27;1.80;;;24.70;1.00;;;;;;5083248;28;20486;-78
2021/07/31 09:14:26;;;;;;;2.40;1.53;;;24.90;1.00;;;;;;5082502;28;20444;-78
2021/07/31 09:16:53;;;;;;;2.10;1.60;;;25.10;1.00;;;;;;5080359;28;20468;-78
2021/07/31 09:19:21;;;;;;;5.60;1.73;;;25.30;1.00;;;;;;5088117;28;20450;-79
2021/07/31 09:21:50;;;;;;;5.57;1.80;;;25.30;1.00;;;;;;5090318;28;20541;-79
2021/07/31 09:24:19;;;;;;;4.70;1.50;;;25.50;1.00;;;;;;5086087;28;20466;-79
2021/07/31 09:26:48;;;;;;;5.33;3.03;;;25.60;1.00;;;;;;5084711;28;20858;-79
2021/07/31 09:29:17;;;;;;;2.57;1.70;;;25.90;1.00;;;;;;5085583;28;20498;-80
2021/07/31 09:31:54;;;;;;;2.50;1.20;;;26.00;1.00;;;;;;5082664;28;20496;-81
2021/07/31 09:34:32;;;;;;;2.17;1.50;;;26.00;1.00;;;;;;5085776;28;20523;-81
2021/07/31 09:37:12;;;;;;;2.97;1.43;;;26.40;1.00;;;;;;5088284;28;20434;-81
2021/07/31 09:39:50;;;;;;;2.87;1.37;;;27.50;1.00;;;;;;5087296;28;20824;-80
2021/07/31 09:42:27;;;;;;;5.10;2.03;;;27.90;1.00;;;;;;5085893;28;20452;-81
2021/07/31 09:44:54;;;;;;;5.13;1.80;;;28.00;1.00;;;;;;5085542;28;20457;-82
2021/07/31 09:47:21;;;;;;;4.03;1.70;;;28.20;1.00;;;;;;5084144;28;20445;-80
2021/07/31 09:49:47;;;;;;;4.90;1.60;;;29.00;1.00;;;;;;5085932;28;20422;-81
2021/07/31 09:52:19;;;;;;;4.20;1.47;;;29.70;1.00;;;;;;5083797;28;20462;-81
2021/07/31 09:54:47;;;;;;;2.80;1.73;;;29.30;1.00;;;;;;5084482;28;20494;-81
2021/07/31 09:57:14;;;;;;;2.90;1.40;;;28.90;1.00;;;;;;5083829;28;20489;-80
2021/07/31 09:59:45;;;;;;;3.40;1.80;;;28.90;1.00;;;;;;5083379;28;20484;-80
2021/07/31 10:02:15;;;;;;;1.97;0.90;;;28.60;1.00;;;;;;5079531;28;20451;-81
2021/07/31 10:04:43;;;;;;;5.83;1.67;;;28.00;1.00;;;;;;5084110;28;20434;-81
2021/07/31 10:07:10;;;;;;;3.00;1.27;;;27.10;1.00;;;;;;5091350;28;20560;-82
2021/07/31 10:09:41;;;;;;;4.97;1.57;;;26.40;1.00;;;;;;5082602;28;20771;-81
2021/07/31 10:12:10;;;;;;;2.80;1.60;;;26.10;1.00;;;;;;5080225;28;20456;-82
2021/07/31 10:14:39;;;;;;;2.10;1.50;;;26.50;1.00;;;;;;5068005;28;20499;-82
2021/07/31 10:17:06;;;;;;;3.60;1.40;;;26.80;1.00;;;;;;5079748;28;20451;-85
2021/07/31 10:19:39;;;;;;;2.10;1.40;;;26.70;1.00;;;;;;5074638;28;21012;-83
2021/07/31 10:22:06;;;;;;;4.50;1.67;;;26.90;1.00;;;;;;5078237;28;21028;-83
2021/07/31 10:25:05;;;;;;;1.93;1.27;;;27.60;1.00;;;;;;5083043;28;20462;-85
2021/07/31 10:27:33;;;;;;;3.10;1.47;;;28.50;1.00;;;;;;5089283;27;20453;-82
2021/07/31 10:30:00;;;;;;;2.80;1.53;;;29.40;1.00;;;;;;5089308;28;20484;-85
2021/07/31 10:32:48;;;;;;;2.30;1.27;;;28.80;1.00;;;;;;5084096;28;20465;-84
2021/07/31 10:35:37;;;;;;;3.30;1.50;;;29.00;1.00;;;;;;5084757;28;20992;-84
2021/07/31 10:38:06;;;;;;;1.77;1.60;;;28.60;1.00;;;;;;5089856;28;20436;-83
2021/07/31 10:40:56;;;;;;;5.50;4.63;;;27.80;1.00;;;;;;5084592;28;20463;-84
2021/07/31 10:43:29;;;;;;;3.33;1.33;;;27.40;1.00;;;;;;5095113;28;20415;-85
2021/07/31 10:46:22;;;;;;;2.63;1.40;;;28.20;1.00;;;;;;5089072;28;20420;-83
2021/07/31 10:48:50;;;;;;;2.30;1.30;;;28.60;1.00;;;;;;5115759;27;20457;-85
2021/07/31 10:51:43;;;;;;;4.53;1.23;;;28.40;1.00;;;;;;5116341;28;20432;-85
2021/07/31 10:54:10;;;;;;;3.67;1.67;;;27.70;1.00;;;;;;5110363;28;20501;-85
2021/07/31 10:57:06;;;;;;;3.57;1.50;;;26.90;1.00;;;;;;5106373;28;20421;-84
2021/07/31 10:59:36;;;;;;;3.30;1.50;;;26.20;1.00;;;;;;5108485;28;20462;-85
2021/07/31 11:02:53;;;;;;;3.93;1.90;;;25.60;1.00;;;;;;5109892;28;20462;-84
2021/07/31 11:05:23;;;;;;;4.03;1.93;;;25.40;1.00;;;;;;5104883;28;20440;-84
2021/07/31 11:08:05;;;;;;;2.30;1.70;;;25.50;1.00;;;;;;5106933;28;20405;-84
2021/07/31 11:10:42;;;;;;;2.40;1.60;;;26.20;1.00;;;;;;5110319;28;20406;-86
2021/07/31 11:13:51;;;;;;;3.40;1.27;;;26.50;1.00;;;;;;5123257;28;20457;-85
2021/07/31 11:16:27;;;;;;;3.73;1.03;;;26.50;1.00;;;;;;5111445;28;20423;-84
2021/07/31 11:18:58;;;;;;;3.60;1.33;;;26.30;1.00;;;;;;5110694;27;20403;-84
2021/07/31 11:21:26;;;;;;;3.97;1.13;;;26.30;1.00;;;;;;5108361;28;20420;-84
2021/07/31 11:23:55;;;;;;;2.57;1.30;;;26.40;1.00;;;;;;5104932;28;20410;-86
2021/07/31 11:26:49;;;;;;;2.43;1.30;;;27.20;1.00;;;;;;5106319;27;20463;-85
2021/07/31 11:29:24;;;;;;;2.93;1.20;;;27.40;1.00;;;;;;5111077;28;20522;-85
2021/07/31 11:32:03;;;;;;;7.20;1.83;;;27.90;1.00;;;;;;5108012;28;20421;-83
2021/07/31 11:37:32;;;;;;;5.03;1.30;;;31.50;1.00;;;;;;5110222;27;20468;-80
2021/07/31 11:40:05;;;;;;;3.17;1.37;;;32.10;1.00;;;;;;5095861;28;20474;-79
2021/07/31 11:42:32;;;;;;;3.30;1.20;;;33.10;1.00;;;;;;5112774;28;20406;-81
2021/07/31 11:45:05;;;;;;;2.60;1.10;;;32.70;1.00;;;;;;5108767;28;20426;-82
2021/07/31 11:47:32;;;;;;;3.90;1.33;;;32.00;1.00;;;;;;5108574;28;20439;-81
2021/07/31 11:50:07;;;;;;;1.63;0.80;;;30.70;1.00;;;;;;5111896;28;20394;-82
2021/07/31 11:52:35;;;;;;;3.23;1.20;;;29.30;1.00;;;;;;5108928;28;20914;-81
2021/07/31 11:55:04;;;;;;;2.30;1.40;;;28.80;1.00;;;;;;5112300;28;20422;-81
2021/07/31 11:57:35;;;;;;;2.03;1.00;;;28.20;1.00;;;;;;5106830;28;20440;-83
2021/07/31 12:00:01;;;;;;;2.40;1.03;;;28.10;1.00;;;;;;5098271;28;20525;-81
2021/07/31 12:02:44;;;;;;;2.63;1.00;;;30.10;1.00;;;;;;5094586;28;20440;-86
2021/07/31 12:05:11;;;;;;;2.57;1.20;;;31.70;1.00;;;;;;5114195;28;20561;-83
2021/07/31 12:07:38;;;;;;;2.40;1.00;;;31.20;1.00;;;;;;5093504;28;20472;-82
2021/07/31 12:10:09;;;;;;;2.33;1.17;;;29.90;1.00;;;;;;5095161;28;20445;-83
2021/07/31 12:12:37;;;;;;;4.37;1.60;;;29.40;1.00;;;;;;5094761;28;20594;-82
2021/07/31 12:15:13;;;;;;;2.10;1.90;;;29.60;1.00;;;;;;5091360;28;20541;-82
2021/07/31 12:17:45;;;;;;;1.60;0.90;;;31.10;1.00;;;;;;5086347;28;20480;-78
2021/07/31 12:20:12;;;;;;;2.53;0.90;;;32.70;1.00;;;;;;5090808;28;20479;-82
2021/07/31 12:22:52;;;;;;;2.53;1.17;;;33.20;1.00;;;;;;5095246;28;20445;-82
2021/07/31 12:25:20;;;;;;;1.33;0.80;;;31.60;1.00;;;;;;5088608;28;20489;-82
2021/07/31 12:27:51;;;;;;;1.80;0.73;;;29.90;1.00;;;;;;5091950;28;21107;-81
2021/07/31 12:30:28;;;;;;;3.40;1.90;;;28.50;1.00;;;;;;5087392;28;20446;-79
2021/07/31 12:32:57;;;;;;;3.10;1.00;;;27.60;1.00;;;;;;5085305;28;20451;-78
2021/07/31 12:35:34;;;;;;;2.07;1.10;;;26.70;1.00;;;;;;5081986;28;20488;-78
2021/07/31 12:38:01;;;;;;;3.20;1.37;;;27.00;1.00;;;;;;5085164;28;20557;-79
2021/07/31 12:40:27;;;;;;;3.73;1.00;;;28.60;1.00;;;;;;5085404;28;20444;-84
2021/07/31 12:42:55;;;;;;;2.93;1.13;;;29.00;1.00;;;;;;5100279;28;20516;-82
2021/07/31 12:45:21;;;;;;;1.73;0.93;;;28.10;1.00;;;;;;5097946;28;20482;-82
2021/07/31 12:47:48;;;;;;;2.60;1.20;;;28.20;1.00;;;;;;5096751;28;20484;-84
2021/07/31 12:50:16;;;;;;;3.50;1.70;;;28.70;1.00;;;;;;5100123;28;20523;-82
2021/07/31 12:52:43;;;;;;;4.60;1.73;;;28.70;1.00;;;;;;5095288;28;20464;-86
2021/07/31 12:55:09;;;;;;;2.30;1.23;;;28.70;1.00;;;;;;5094525;28;20494;-84
2021/07/31 12:57:36;;;;;;;2.67;1.80;;;28.40;1.00;;;;;;5098532;28;20446;-83
2021/07/31 13:00:04;;;;;;;2.83;1.13;;;28.20;1.00;;;;;;5099166;28;20857;-82
2021/07/31 13:02:31;;;;;;;2.50;1.43;;;27.90;1.00;;;;;;5099871;28;20434;-83
2021/07/31 13:04:58;;;;;;;1.80;1.00;;;27.70;1.00;;;;;;5093400;28;20456;-85
2021/07/31 13:07:28;;;;;;;3.63;1.47;;;28.00;1.00;;;;;;5097708;28;20487;-84
2021/07/31 13:09:54;;;;;;;5.10;1.40;;;28.30;1.00;;;;;;5097199;28;20459;-83